Wauchula, Florida
Current Conditions -  °F | °C
As of 8:50 AM on Thursday 18 Dec 2014 (Local Time) from KBOW Reporting Station
Scattered Clouds Scattered Clouds  
Wind Chill: 11°   Ceiling: Unl
Heat Index: 11°   Visibility: 10mi
Dew Point:   Wind: 8mph
Humidity: 88%   Direction: 330°NNW
Pressure: 30.2"   Gusts: NA
Location:  27.55°N, 81.81°W
Report Text: KBOW 181350Z 33007KT 10SM SCT150 11/09 A3020
Loading
Personal Weather Stations






























Interactive Weather Map New forecast layout! Learn more

10-Day Weather Forecast

Advertisements
Track Severe Weather on mobile